sensor_id;sensor_type;location;lat;lon;timestamp;temperature;humidity
25438;DHT22;13364;49.084;9.978;2023-08-21T00:01:41;23.60;89.00
25438;DHT22;13364;49.084;9.978;2023-08-21T00:04:09;23.60;88.70
25438;DHT22;13364;49.084;9.978;2023-08-21T00:06:36;23.60;88.70
25438;DHT22;13364;49.084;9.978;2023-08-21T00:09:03;23.60;88.90
25438;DHT22;13364;49.084;9.978;2023-08-21T00:11:30;23.60;88.90
25438;DHT22;13364;49.084;9.978;2023-08-21T00:13:57;23.60;88.70
25438;DHT22;13364;49.084;9.978;2023-08-21T00:16:24;23.60;88.50
25438;DHT22;13364;49.084;9.978;2023-08-21T00:18:53;23.50;88.50
25438;DHT22;13364;49.084;9.978;2023-08-21T00:21:21;23.50;88.30
25438;DHT22;13364;49.084;9.978;2023-08-21T00:23:48;23.50;88.30
25438;DHT22;13364;49.084;9.978;2023-08-21T00:26:15;23.40;88.40
25438;DHT22;13364;49.084;9.978;2023-08-21T00:28:42;23.40;88.60
25438;DHT22;13364;49.084;9.978;2023-08-21T00:31:09;23.30;88.60
25438;DHT22;13364;49.084;9.978;2023-08-21T00:33:37;23.30;88.60
25438;DHT22;13364;49.084;9.978;2023-08-21T00:36:04;23.30;88.80
25438;DHT22;13364;49.084;9.978;2023-08-21T00:38:56;23.30;88.50
25438;DHT22;13364;49.084;9.978;2023-08-21T00:41:24;23.30;88.80
25438;DHT22;13364;49.084;9.978;2023-08-21T00:43:51;23.20;89.00
25438;DHT22;13364;49.084;9.978;2023-08-21T00:46:18;23.20;89.10
25438;DHT22;13364;49.084;9.978;2023-08-21T00:48:45;23.20;89.00
25438;DHT22;13364;49.084;9.978;2023-08-21T00:51:14;23.20;89.00
25438;DHT22;13364;49.084;9.978;2023-08-21T00:53:42;23.10;89.20
25438;DHT22;13364;49.084;9.978;2023-08-21T00:56:12;23.10;89.60
25438;DHT22;13364;49.084;9.978;2023-08-21T00:58:40;23.10;89.60
25438;DHT22;13364;49.084;9.978;2023-08-21T01:01:07;23.10;89.70
25438;DHT22;13364;49.084;9.978;2023-08-21T01:03:34;23.10;90.00
25438;DHT22;13364;49.084;9.978;2023-08-21T01:06:01;23.00;90.40
25438;DHT22;13364;49.084;9.978;2023-08-21T01:16:54;23.00;90.90
25438;DHT22;13364;49.084;9.978;2023-08-21T01:19:31;23.00;91.10
25438;DHT22;13364;49.084;9.978;2023-08-21T01:22:02;23.00;91.30
25438;DHT22;13364;49.084;9.978;2023-08-21T01:24:29;23.00;90.00
25438;DHT22;13364;49.084;9.978;2023-08-21T01:26:57;22.90;90.70
25438;DHT22;13364;49.084;9.978;2023-08-21T01:29:30;22.90;91.10
25438;DHT22;13364;49.084;9.978;2023-08-21T01:32:25;23.00;91.50
25438;DHT22;13364;49.084;9.978;2023-08-21T01:34:55;23.00;91.70
25438;DHT22;13364;49.084;9.978;2023-08-21T01:37:24;23.00;91.70
25438;DHT22;13364;49.084;9.978;2023-08-21T01:39:53;23.00;91.50
25438;DHT22;13364;49.084;9.978;2023-08-21T01:42:20;23.10;91.40
25438;DHT22;13364;49.084;9.978;2023-08-21T01:44:47;23.10;91.40
25438;DHT22;13364;49.084;9.978;2023-08-21T01:47:14;23.10;91.30
25438;DHT22;13364;49.084;9.978;2023-08-21T01:49:42;23.10;91.40
25438;DHT22;13364;49.084;9.978;2023-08-21T01:52:09;23.10;91.40
25438;DHT22;13364;49.084;9.978;2023-08-21T01:54:36;23.00;91.30
25438;DHT22;13364;49.084;9.978;2023-08-21T01:57:03;23.10;91.40
25438;DHT22;13364;49.084;9.978;2023-08-21T01:59:30;23.00;91.40
25438;DHT22;13364;49.084;9.978;2023-08-21T02:01:57;23.00;91.40
25438;DHT22;13364;49.084;9.978;2023-08-21T02:04:24;23.00;91.20
25438;DHT22;13364;49.084;9.978;2023-08-21T02:06:51;22.90;91.30
25438;DHT22;13364;49.084;9.978;2023-08-21T02:09:21;22.90;91.40
25438;DHT22;13364;49.084;9.978;2023-08-21T02:11:48;22.80;91.50
25438;DHT22;13364;49.084;9.978;2023-08-21T02:14:15;22.80;91.40
25438;DHT22;13364;49.084;9.978;2023-08-21T02:16:42;22.80;91.30
25438;DHT22;13364;49.084;9.978;2023-08-21T02:19:09;22.80;91.10
25438;DHT22;13364;49.084;9.978;2023-08-21T02:21:36;22.80;91.10
25438;DHT22;13364;49.084;9.978;2023-08-21T02:24:04;22.70;91.10
25438;DHT22;13364;49.084;9.978;2023-08-21T02:26:31;22.70;91.30
25438;DHT22;13364;49.084;9.978;2023-08-21T02:28:58;22.60;91.40
25438;DHT22;13364;49.084;9.978;2023-08-21T02:31:25;22.60;91.50
25438;DHT22;13364;49.084;9.978;2023-08-21T02:33:53;22.60;91.50
25438;DHT22;13364;49.084;9.978;2023-08-21T02:36:20;22.50;91.80
25438;DHT22;13364;49.084;9.978;2023-08-21T02:38:47;22.50;91.80
25438;DHT22;13364;49.084;9.978;2023-08-21T02:41:14;22.50;91.90
25438;DHT22;13364;49.084;9.978;2023-08-21T02:43:44;22.50;91.90
25438;DHT22;13364;49.084;9.978;2023-08-21T02:46:11;22.50;91.80
25438;DHT22;13364;49.084;9.978;2023-08-21T02:48:38;22.50;91.80
25438;DHT22;13364;49.084;9.978;2023-08-21T02:51:05;22.50;91.80
25438;DHT22;13364;49.084;9.978;2023-08-21T02:57:51;22.50;92.00
25438;DHT22;13364;49.084;9.978;2023-08-21T03:00:18;22.40;92.20
25438;DHT22;13364;49.084;9.978;2023-08-21T03:02:45;22.40;92.30
25438;DHT22;13364;49.084;9.978;2023-08-21T03:05:13;22.50;92.30
25438;DHT22;13364;49.084;9.978;2023-08-21T03:07:41;22.40;92.10
25438;DHT22;13364;49.084;9.978;2023-08-21T03:10:08;22.40;92.00
25438;DHT22;13364;49.084;9.978;2023-08-21T03:12:36;22.40;91.90
25438;DHT22;13364;49.084;9.978;2023-08-21T03:15:04;22.40;91.80
25438;DHT22;13364;49.084;9.978;2023-08-21T03:17:31;22.40;91.80
25438;DHT22;13364;49.084;9.978;2023-08-21T03:19:58;22.40;91.90
25438;DHT22;13364;49.084;9.978;2023-08-21T03:22:26;22.30;92.00
25438;DHT22;13364;49.084;9.978;2023-08-21T03:24:53;22.30;92.10
25438;DHT22;13364;49.084;9.978;2023-08-21T03:27:21;22.20;92.30
25438;DHT22;13364;49.084;9.978;2023-08-21T03:29:49;22.20;92.50
25438;DHT22;13364;49.084;9.978;2023-08-21T03:32:17;22.10;92.70
25438;DHT22;13364;49.084;9.978;2023-08-21T03:34:46;22.10;92.90
25438;DHT22;13364;49.084;9.978;2023-08-21T03:37:14;22.10;93.10
25438;DHT22;13364;49.084;9.978;2023-08-21T03:39:43;22.10;93.20
25438;DHT22;13364;49.084;9.978;2023-08-21T03:42:11;22.10;93.30
25438;DHT22;13364;49.084;9.978;2023-08-21T03:44:39;22.10;93.20
25438;DHT22;13364;49.084;9.978;2023-08-21T03:47:10;22.10;93.00
25438;DHT22;13364;49.084;9.978;2023-08-21T03:49:47;22.10;93.10
25438;DHT22;13364;49.084;9.978;2023-08-21T03:52:16;22.00;93.20
25438;DHT22;13364;49.084;9.978;2023-08-21T03:54:43;21.90;93.30
25438;DHT22;13364;49.084;9.978;2023-08-21T03:57:10;21.80;94.00
25438;DHT22;13364;49.084;9.978;2023-08-21T03:59:41;21.70;94.70
25438;DHT22;13364;49.084;9.978;2023-08-21T04:02:08;21.70;94.70
25438;DHT22;13364;49.084;9.978;2023-08-21T04:04:37;21.70;94.50
25438;DHT22;13364;49.084;9.978;2023-08-21T04:07:05;21.70;94.30
25438;DHT22;13364;49.084;9.978;2023-08-21T04:09:33;21.80;94.20
25438;DHT22;13364;49.084;9.978;2023-08-21T04:12:00;21.80;94.30
25438;DHT22;13364;49.084;9.978;2023-08-21T04:14:27;21.70;94.20
25438;DHT22;13364;49.084;9.978;2023-08-21T04:16:57;21.70;94.30
25438;DHT22;13364;49.084;9.978;2023-08-21T04:19:24;21.70;94.20
25438;DHT22;13364;49.084;9.978;2023-08-21T04:21:56;21.70;94.30
25438;DHT22;13364;49.084;9.978;2023-08-21T04:24:24;21.60;94.60
25438;DHT22;13364;49.084;9.978;2023-08-21T04:26:51;21.60;94.70
25438;DHT22;13364;49.084;9.978;2023-08-21T04:29:24;21.60;94.80
25438;DHT22;13364;49.084;9.978;2023-08-21T04:31:52;21.60;94.90
25438;DHT22;13364;49.084;9.978;2023-08-21T04:34:19;21.60;94.80
25438;DHT22;13364;49.084;9.978;2023-08-21T04:36:46;21.70;94.70
25438;DHT22;13364;49.084;9.978;2023-08-21T04:39:13;21.70;94.70
25438;DHT22;13364;49.084;9.978;2023-08-21T04:41:41;21.70;94.60
25438;DHT22;13364;49.084;9.978;2023-08-21T04:44:08;21.70;94.50
25438;DHT22;13364;49.084;9.978;2023-08-21T04:46:35;21.70;94.50
25438;DHT22;13364;49.084;9.978;2023-08-21T04:49:03;21.80;94.70
25438;DHT22;13364;49.084;9.978;2023-08-21T04:51:30;21.80;94.70
25438;DHT22;13364;49.084;9.978;2023-08-21T04:54:00;21.80;94.90
25438;DHT22;13364;49.084;9.978;2023-08-21T04:56:29;21.80;94.90
25438;DHT22;13364;49.084;9.978;2023-08-21T04:58:56;21.80;95.10
25438;DHT22;13364;49.084;9.978;2023-08-21T05:01:25;21.80;95.20
25438;DHT22;13364;49.084;9.978;2023-08-21T05:03:53;21.80;95.20
25438;DHT22;13364;49.084;9.978;2023-08-21T05:06:21;21.80;95.30
25438;DHT22;13364;49.084;9.978;2023-08-21T05:08:49;21.80;95.20
25438;DHT22;13364;49.084;9.978;2023-08-21T05:11:16;21.80;95.20
25438;DHT22;13364;49.084;9.978;2023-08-21T05:13:44;21.90;95.20
25438;DHT22;13364;49.084;9.978;2023-08-21T05:16:13;21.90;95.20
25438;DHT22;13364;49.084;9.978;2023-08-21T05:18:41;21.90;95.20
25438;DHT22;13364;49.084;9.978;2023-08-21T05:21:09;22.00;95.20
25438;DHT22;13364;49.084;9.978;2023-08-21T05:23:36;22.00;95.50
25438;DHT22;13364;49.084;9.978;2023-08-21T05:26:06;22.10;95.70
25438;DHT22;13364;49.084;9.978;2023-08-21T05:28:33;22.10;95.60
25438;DHT22;13364;49.084;9.978;2023-08-21T05:31:00;22.20;95.70
25438;DHT22;13364;49.084;9.978;2023-08-21T05:33:38;22.20;95.60
25438;DHT22;13364;49.084;9.978;2023-08-21T05:36:06;22.20;95.40
25438;DHT22;13364;49.084;9.978;2023-08-21T05:38:33;22.30;95.30
25438;DHT22;13364;49.084;9.978;2023-08-21T05:41:00;22.30;95.40
25438;DHT22;13364;49.084;9.978;2023-08-21T05:43:28;22.40;95.40
25438;DHT22;13364;49.084;9.978;2023-08-21T05:45:56;22.40;95.40
25438;DHT22;13364;49.084;9.978;2023-08-21T05:48:23;22.50;95.30
25438;DHT22;13364;49.084;9.978;2023-08-21T05:50:51;22.50;95.70
25438;DHT22;13364;49.084;9.978;2023-08-21T05:53:19;22.50;95.70
25438;DHT22;13364;49.084;9.978;2023-08-21T05:55:46;22.60;95.40
25438;DHT22;13364;49.084;9.978;2023-08-21T05:58:13;22.60;96.20
25438;DHT22;13364;49.084;9.978;2023-08-21T06:00:41;22.60;95.20
25438;DHT22;13364;49.084;9.978;2023-08-21T06:03:09;22.60;94.60
25438;DHT22;13364;49.084;9.978;2023-08-21T06:05:59;22.70;95.00
25438;DHT22;13364;49.084;9.978;2023-08-21T06:08:26;22.70;94.90
25438;DHT22;13364;49.084;9.978;2023-08-21T06:10:53;22.80;94.90
25438;DHT22;13364;49.084;9.978;2023-08-21T06:13:21;22.90;94.30
25438;DHT22;13364;49.084;9.978;2023-08-21T06:15:51;22.90;93.80
25438;DHT22;13364;49.084;9.978;2023-08-21T06:18:19;22.90;93.20
25438;DHT22;13364;49.084;9.978;2023-08-21T06:20:47;23.00;93.10
25438;DHT22;13364;49.084;9.978;2023-08-21T06:23:14;23.10;93.00
25438;DHT22;13364;49.084;9.978;2023-08-21T06:25:42;23.20;93.00
25438;DHT22;13364;49.084;9.978;2023-08-21T06:28:11;23.20;94.20
25438;DHT22;13364;49.084;9.978;2023-08-21T06:30:38;23.30;93.70
25438;DHT22;13364;49.084;9.978;2023-08-21T06:33:05;23.40;92.80
25438;DHT22;13364;49.084;9.978;2023-08-21T06:35:36;23.40;93.10
25438;DHT22;13364;49.084;9.978;2023-08-21T06:38:04;23.50;92.80
25438;DHT22;13364;49.084;9.978;2023-08-21T06:40:32;23.50;91.70
25438;DHT22;13364;49.084;9.978;2023-08-21T06:42:59;23.60;91.50
25438;DHT22;13364;49.084;9.978;2023-08-21T06:45:31;23.60;91.30
25438;DHT22;13364;49.084;9.978;2023-08-21T06:47:59;23.60;91.40
25438;DHT22;13364;49.084;9.978;2023-08-21T06:50:26;23.60;91.50
25438;DHT22;13364;49.084;9.978;2023-08-21T06:52:53;23.70;91.50
25438;DHT22;13364;49.084;9.978;2023-08-21T06:55:20;23.80;91.90
25438;DHT22;13364;49.084;9.978;2023-08-21T06:57:48;24.00;92.30
25438;DHT22;13364;49.084;9.978;2023-08-21T07:00:15;24.10;92.60
25438;DHT22;13364;49.084;9.978;2023-08-21T07:02:42;24.20;92.10
25438;DHT22;13364;49.084;9.978;2023-08-21T07:05:09;24.30;92.10
25438;DHT22;13364;49.084;9.978;2023-08-21T07:07:38;24.40;91.80
25438;DHT22;13364;49.084;9.978;2023-08-21T07:10:05;24.50;91.90
25438;DHT22;13364;49.084;9.978;2023-08-21T07:12:33;24.60;92.40
25438;DHT22;13364;49.084;9.978;2023-08-21T07:15:00;24.70;91.50
25438;DHT22;13364;49.084;9.978;2023-08-21T07:17:27;24.80;91.30
25438;DHT22;13364;49.084;9.978;2023-08-21T07:19:54;24.80;91.50
25438;DHT22;13364;49.084;9.978;2023-08-21T07:22:21;24.80;90.90
25438;DHT22;13364;49.084;9.978;2023-08-21T07:24:48;24.80;90.20
25438;DHT22;13364;49.084;9.978;2023-08-21T07:27:15;24.90;89.90
25438;DHT22;13364;49.084;9.978;2023-08-21T07:29:43;25.00;89.90
25438;DHT22;13364;49.084;9.978;2023-08-21T07:32:10;25.00;89.40
25438;DHT22;13364;49.084;9.978;2023-08-21T07:34:37;25.10;89.10
25438;DHT22;13364;49.084;9.978;2023-08-21T07:37:04;25.20;88.80
25438;DHT22;13364;49.084;9.978;2023-08-21T07:39:31;25.30;87.60
25438;DHT22;13364;49.084;9.978;2023-08-21T07:41:58;25.30;87.50
25438;DHT22;13364;49.084;9.978;2023-08-21T07:44:26;25.40;88.30
25438;DHT22;13364;49.084;9.978;2023-08-21T07:46:53;25.40;86.70
25438;DHT22;13364;49.084;9.978;2023-08-21T07:49:20;25.50;86.10
25438;DHT22;13364;49.084;9.978;2023-08-21T07:51:47;25.60;86.50
25438;DHT22;13364;49.084;9.978;2023-08-21T07:54:14;25.60;86.30
25438;DHT22;13364;49.084;9.978;2023-08-21T07:56:41;25.70;86.30
25438;DHT22;13364;49.084;9.978;2023-08-21T07:59:08;25.80;86.40
25438;DHT22;13364;49.084;9.978;2023-08-21T08:01:35;25.80;85.90
25438;DHT22;13364;49.084;9.978;2023-08-21T08:04:03;25.90;85.80
25438;DHT22;13364;49.084;9.978;2023-08-21T08:06:31;26.00;85.60
25438;DHT22;13364;49.084;9.978;2023-08-21T08:08:58;26.00;85.20
25438;DHT22;13364;49.084;9.978;2023-08-21T08:11:25;26.10;85.20
25438;DHT22;13364;49.084;9.978;2023-08-21T08:13:52;26.20;85.80
25438;DHT22;13364;49.084;9.978;2023-08-21T08:16:19;26.30;84.50
25438;DHT22;13364;49.084;9.978;2023-08-21T08:18:47;26.40;84.70
25438;DHT22;13364;49.084;9.978;2023-08-21T08:21:14;26.60;83.90
25438;DHT22;13364;49.084;9.978;2023-08-21T08:23:41;26.70;81.30
25438;DHT22;13364;49.084;9.978;2023-08-21T08:26:08;26.60;81.40
25438;DHT22;13364;49.084;9.978;2023-08-21T08:28:35;26.70;82.00
25438;DHT22;13364;49.084;9.978;2023-08-21T08:31:02;26.70;81.70
25438;DHT22;13364;49.084;9.978;2023-08-21T08:33:29;26.90;83.30
25438;DHT22;13364;49.084;9.978;2023-08-21T08:35:56;27.00;82.40
25438;DHT22;13364;49.084;9.978;2023-08-21T08:38:24;27.20;82.10
25438;DHT22;13364;49.084;9.978;2023-08-21T08:40:51;27.40;81.70
25438;DHT22;13364;49.084;9.978;2023-08-21T08:43:21;27.50;82.00
25438;DHT22;13364;49.084;9.978;2023-08-21T08:45:50;27.70;79.20
25438;DHT22;13364;49.084;9.978;2023-08-21T08:48:18;27.80;78.90
25438;DHT22;13364;49.084;9.978;2023-08-21T08:50:47;27.90;80.40
25438;DHT22;13364;49.084;9.978;2023-08-21T08:53:15;28.00;76.60
25438;DHT22;13364;49.084;9.978;2023-08-21T08:55:44;28.10;75.30
25438;DHT22;13364;49.084;9.978;2023-08-21T08:58:11;28.30;77.00
25438;DHT22;13364;49.084;9.978;2023-08-21T09:00:38;28.40;75.90
25438;DHT22;13364;49.084;9.978;2023-08-21T09:03:06;28.50;71.60
25438;DHT22;13364;49.084;9.978;2023-08-21T09:05:34;28.30;72.50
25438;DHT22;13364;49.084;9.978;2023-08-21T09:08:14;28.30;74.20
25438;DHT22;13364;49.084;9.978;2023-08-21T09:10:42;28.50;75.30
25438;DHT22;13364;49.084;9.978;2023-08-21T09:13:14;28.70;72.60
25438;DHT22;13364;49.084;9.978;2023-08-21T09:15:47;28.70;67.00
25438;DHT22;13364;49.084;9.978;2023-08-21T09:18:15;28.70;67.10
25438;DHT22;13364;49.084;9.978;2023-08-21T09:20:43;28.70;64.80
25438;DHT22;13364;49.084;9.978;2023-08-21T09:23:15;28.70;66.00
25438;DHT22;13364;49.084;9.978;2023-08-21T09:25:47;28.80;66.90
25438;DHT22;13364;49.084;9.978;2023-08-21T09:28:19;28.80;62.90
25438;DHT22;13364;49.084;9.978;2023-08-21T09:30:52;28.80;63.00
25438;DHT22;13364;49.084;9.978;2023-08-21T09:33:21;28.80;63.20
25438;DHT22;13364;49.084;9.978;2023-08-21T09:35:51;28.80;63.20
25438;DHT22;13364;49.084;9.978;2023-08-21T09:38:19;28.90;65.30
25438;DHT22;13364;49.084;9.978;2023-08-21T09:40:54;28.90;62.10
25438;DHT22;13364;49.084;9.978;2023-08-21T09:43:23;28.90;61.40
25438;DHT22;13364;49.084;9.978;2023-08-21T09:45:53;29.00;62.50
25438;DHT22;13364;49.084;9.978;2023-08-21T09:48:23;29.20;61.50
25438;DHT22;13364;49.084;9.978;2023-08-21T09:50:54;29.20;60.10
25438;DHT22;13364;49.084;9.978;2023-08-21T09:53:23;29.30;61.60
25438;DHT22;13364;49.084;9.978;2023-08-21T09:55:54;29.30;60.40
25438;DHT22;13364;49.084;9.978;2023-08-21T09:58:22;29.30;60.30
25438;DHT22;13364;49.084;9.978;2023-08-21T10:00:49;29.30;60.00
25438;DHT22;13364;49.084;9.978;2023-08-21T10:03:21;29.40;61.60
25438;DHT22;13364;49.084;9.978;2023-08-21T10:05:49;29.60;63.60
25438;DHT22;13364;49.084;9.978;2023-08-21T10:08:21;29.90;61.40
25438;DHT22;13364;49.084;9.978;2023-08-21T10:10:50;30.10;57.70
25438;DHT22;13364;49.084;9.978;2023-08-21T10:13:18;30.20;58.10
25438;DHT22;13364;49.084;9.978;2023-08-21T10:15:45;30.40;56.20
25438;DHT22;13364;49.084;9.978;2023-08-21T10:18:35;30.60;58.30
25438;DHT22;13364;49.084;9.978;2023-08-21T10:23:39;31.00;57.80
25438;DHT22;13364;49.084;9.978;2023-08-21T10:26:11;31.30;59.40
25438;DHT22;13364;49.084;9.978;2023-08-21T10:28:59;31.50;57.00
25438;DHT22;13364;49.084;9.978;2023-08-21T10:34:20;31.70;57.10
25438;DHT22;13364;49.084;9.978;2023-08-21T10:39:24;32.00;56.30
25438;DHT22;13364;49.084;9.978;2023-08-21T10:42:08;32.30;56.90
25438;DHT22;13364;49.084;9.978;2023-08-21T10:44:37;32.30;56.30
25438;DHT22;13364;49.084;9.978;2023-08-21T10:49:45;32.40;55.50
25438;DHT22;13364;49.084;9.978;2023-08-21T10:52:12;32.60;57.10
25438;DHT22;13364;49.084;9.978;2023-08-21T10:54:47;32.70;55.80
25438;DHT22;13364;49.084;9.978;2023-08-21T10:57:15;32.80;55.10
25438;DHT22;13364;49.084;9.978;2023-08-21T10:59:59;32.80;55.20
25438;DHT22;13364;49.084;9.978;2023-08-21T11:02:28;33.00;55.90
25438;DHT22;13364;49.084;9.978;2023-08-21T11:05:00;33.20;56.00
25438;DHT22;13364;49.084;9.978;2023-08-21T11:07:27;33.50;56.60
25438;DHT22;13364;49.084;9.978;2023-08-21T11:09:55;33.70;53.20
25438;DHT22;13364;49.084;9.978;2023-08-21T11:12:24;33.70;52.80
25438;DHT22;13364;49.084;9.978;2023-08-21T11:14:51;33.60;54.70
25438;DHT22;13364;49.084;9.978;2023-08-21T11:17:18;33.80;54.20
25438;DHT22;13364;49.084;9.978;2023-08-21T11:19:46;33.90;52.50
25438;DHT22;13364;49.084;9.978;2023-08-21T11:22:16;34.10;53.70
25438;DHT22;13364;49.084;9.978;2023-08-21T11:24:45;34.00;52.80
25438;DHT22;13364;49.084;9.978;2023-08-21T11:27:17;33.90;52.80
25438;DHT22;13364;49.084;9.978;2023-08-21T11:29:46;33.90;51.90
25438;DHT22;13364;49.084;9.978;2023-08-21T11:32:22;33.90;53.60
25438;DHT22;13364;49.084;9.978;2023-08-21T11:34:55;33.90;53.60
25438;DHT22;13364;49.084;9.978;2023-08-21T11:37:26;33.90;52.40
25438;DHT22;13364;49.084;9.978;2023-08-21T11:39:55;33.80;54.20
25438;DHT22;13364;49.084;9.978;2023-08-21T11:42:29;33.80;53.10
25438;DHT22;13364;49.084;9.978;2023-08-21T11:44:58;33.70;51.40
25438;DHT22;13364;49.084;9.978;2023-08-21T11:47:31;33.50;52.60
25438;DHT22;13364;49.084;9.978;2023-08-21T11:50:03;33.40;55.40
25438;DHT22;13364;49.084;9.978;2023-08-21T11:52:31;33.40;56.00
25438;DHT22;13364;49.084;9.978;2023-08-21T11:54:59;33.50;55.10
25438;DHT22;13364;49.084;9.978;2023-08-21T11:57:26;33.70;54.40
25438;DHT22;13364;49.084;9.978;2023-08-21T11:59:54;33.90;53.40
25438;DHT22;13364;49.084;9.978;2023-08-21T12:02:24;34.10;51.50
25438;DHT22;13364;49.084;9.978;2023-08-21T12:04:54;34.20;51.40
25438;DHT22;13364;49.084;9.978;2023-08-21T12:07:22;34.40;53.00
25438;DHT22;13364;49.084;9.978;2023-08-21T12:09:49;34.50;51.70
25438;DHT22;13364;49.084;9.978;2023-08-21T12:12:16;34.30;51.00
25438;DHT22;13364;49.084;9.978;2023-08-21T12:14:44;34.10;53.50
25438;DHT22;13364;49.084;9.978;2023-08-21T12:17:11;34.00;52.30
25438;DHT22;13364;49.084;9.978;2023-08-21T12:19:38;33.70;52.10
25438;DHT22;13364;49.084;9.978;2023-08-21T12:22:05;33.30;52.30
25438;DHT22;13364;49.084;9.978;2023-08-21T12:24:32;32.90;54.30
25438;DHT22;13364;49.084;9.978;2023-08-21T12:26:59;32.70;54.10
25438;DHT22;13364;49.084;9.978;2023-08-21T12:29:26;32.60;54.50
25438;DHT22;13364;49.084;9.978;2023-08-21T12:31:54;32.50;55.20
25438;DHT22;13364;49.084;9.978;2023-08-21T12:34:21;32.50;54.40
25438;DHT22;13364;49.084;9.978;2023-08-21T12:36:50;32.50;54.40
25438;DHT22;13364;49.084;9.978;2023-08-21T12:39:17;32.50;55.60
25438;DHT22;13364;49.084;9.978;2023-08-21T12:41:45;32.40;55.40
25438;DHT22;13364;49.084;9.978;2023-08-21T12:44:12;32.30;58.90
25438;DHT22;13364;49.084;9.978;2023-08-21T12:46:39;32.40;56.70
25438;DHT22;13364;49.084;9.978;2023-08-21T12:49:06;32.40;56.70
25438;DHT22;13364;49.084;9.978;2023-08-21T12:51:33;32.60;56.60
25438;DHT22;13364;49.084;9.978;2023-08-21T12:54:00;32.70;54.60
25438;DHT22;13364;49.084;9.978;2023-08-21T12:56:27;33.00;56.30
25438;DHT22;13364;49.084;9.978;2023-08-21T12:58:54;33.30;52.60
25438;DHT22;13364;49.084;9.978;2023-08-21T13:01:22;33.50;53.50
25438;DHT22;13364;49.084;9.978;2023-08-21T13:03:49;33.70;51.30
25438;DHT22;13364;49.084;9.978;2023-08-21T13:06:16;33.80;53.60
25438;DHT22;13364;49.084;9.978;2023-08-21T13:08:43;33.80;50.90
25438;DHT22;13364;49.084;9.978;2023-08-21T13:11:10;33.70;52.40
25438;DHT22;13364;49.084;9.978;2023-08-21T13:13:37;33.60;52.10
25438;DHT22;13364;49.084;9.978;2023-08-21T13:16:04;33.60;52.90
25438;DHT22;13364;49.084;9.978;2023-08-21T13:18:31;33.70;52.90
25438;DHT22;13364;49.084;9.978;2023-08-21T13:20:58;33.80;52.30
25438;DHT22;13364;49.084;9.978;2023-08-21T13:23:28;33.90;52.70
25438;DHT22;13364;49.084;9.978;2023-08-21T13:25:55;33.90;51.90
25438;DHT22;13364;49.084;9.978;2023-08-21T13:28:24;33.80;50.80
25438;DHT22;13364;49.084;9.978;2023-08-21T13:30:51;33.70;50.20
25438;DHT22;13364;49.084;9.978;2023-08-21T13:33:19;33.70;50.80
25438;DHT22;13364;49.084;9.978;2023-08-21T13:35:47;33.80;52.70
25438;DHT22;13364;49.084;9.978;2023-08-21T13:38:14;34.00;50.90
25438;DHT22;13364;49.084;9.978;2023-08-21T13:40:41;34.10;49.20
25438;DHT22;13364;49.084;9.978;2023-08-21T13:43:08;34.00;50.10
25438;DHT22;13364;49.084;9.978;2023-08-21T13:45:39;33.90;49.00
25438;DHT22;13364;49.084;9.978;2023-08-21T13:48:06;33.80;49.90
25438;DHT22;13364;49.084;9.978;2023-08-21T13:50:34;33.90;49.90
25438;DHT22;13364;49.084;9.978;2023-08-21T13:53:01;34.00;51.10
25438;DHT22;13364;49.084;9.978;2023-08-21T13:55:28;34.10;52.00
25438;DHT22;13364;49.084;9.978;2023-08-21T13:57:55;34.20;49.00
25438;DHT22;13364;49.084;9.978;2023-08-21T14:00:22;34.20;49.70
25438;DHT22;13364;49.084;9.978;2023-08-21T14:02:50;34.20;48.60
25438;DHT22;13364;49.084;9.978;2023-08-21T14:05:17;34.20;48.60
25438;DHT22;13364;49.084;9.978;2023-08-21T14:07:44;34.20;48.30
25438;DHT22;13364;49.084;9.978;2023-08-21T14:10:12;34.00;48.40
25438;DHT22;13364;49.084;9.978;2023-08-21T14:12:41;33.90;48.90
25438;DHT22;13364;49.084;9.978;2023-08-21T14:15:09;33.90;49.10
25438;DHT22;13364;49.084;9.978;2023-08-21T14:17:37;34.10;49.50
25438;DHT22;13364;49.084;9.978;2023-08-21T14:20:06;34.20;50.20
25438;DHT22;13364;49.084;9.978;2023-08-21T14:22:36;34.50;49.90
25438;DHT22;13364;49.084;9.978;2023-08-21T14:25:04;34.60;48.30
25438;DHT22;13364;49.084;9.978;2023-08-21T14:27:33;34.70;49.40
25438;DHT22;13364;49.084;9.978;2023-08-21T14:30:00;34.80;46.80
25438;DHT22;13364;49.084;9.978;2023-08-21T14:32:27;34.80;48.70
25438;DHT22;13364;49.084;9.978;2023-08-21T14:34:54;34.80;48.70
25438;DHT22;13364;49.084;9.978;2023-08-21T14:37:21;34.80;48.40
25438;DHT22;13364;49.084;9.978;2023-08-21T14:39:50;34.80;48.20
25438;DHT22;13364;49.084;9.978;2023-08-21T14:42:17;34.90;46.10
25438;DHT22;13364;49.084;9.978;2023-08-21T14:44:45;34.90;46.40
25438;DHT22;13364;49.084;9.978;2023-08-21T14:47:13;35.10;48.30
25438;DHT22;13364;49.084;9.978;2023-08-21T14:49:40;35.30;45.20
25438;DHT22;13364;49.084;9.978;2023-08-21T14:52:07;35.40;43.90
25438;DHT22;13364;49.084;9.978;2023-08-21T14:54:35;35.40;44.70
25438;DHT22;13364;49.084;9.978;2023-08-21T14:57:02;35.50;45.40
25438;DHT22;13364;49.084;9.978;2023-08-21T14:59:29;35.50;45.50
25438;DHT22;13364;49.084;9.978;2023-08-21T15:01:56;35.60;45.50
25438;DHT22;13364;49.084;9.978;2023-08-21T15:04:24;35.50;44.50
25438;DHT22;13364;49.084;9.978;2023-08-21T15:06:51;35.40;45.30
25438;DHT22;13364;49.084;9.978;2023-08-21T15:09:18;35.40;45.60
25438;DHT22;13364;49.084;9.978;2023-08-21T15:11:45;35.40;46.30
25438;DHT22;13364;49.084;9.978;2023-08-21T15:14:12;35.30;45.00
25438;DHT22;13364;49.084;9.978;2023-08-21T15:16:39;35.10;46.90
25438;DHT22;13364;49.084;9.978;2023-08-21T15:19:06;34.90;47.60
25438;DHT22;13364;49.084;9.978;2023-08-21T15:21:34;34.80;48.20
25438;DHT22;13364;49.084;9.978;2023-08-21T15:24:01;34.80;47.20
25438;DHT22;13364;49.084;9.978;2023-08-21T15:26:31;34.80;49.80
25438;DHT22;13364;49.084;9.978;2023-08-21T15:28:59;34.70;47.10
25438;DHT22;13364;49.084;9.978;2023-08-21T15:31:27;34.70;47.10
25438;DHT22;13364;49.084;9.978;2023-08-21T15:33:54;34.70;46.20
25438;DHT22;13364;49.084;9.978;2023-08-21T15:36:21;34.70;46.40
25438;DHT22;13364;49.084;9.978;2023-08-21T15:38:48;34.70;46.50
25438;DHT22;13364;49.084;9.978;2023-08-21T15:41:15;34.60;47.20
25438;DHT22;13364;49.084;9.978;2023-08-21T15:43:42;34.50;46.30
25438;DHT22;13364;49.084;9.978;2023-08-21T15:46:09;34.40;47.00
25438;DHT22;13364;49.084;9.978;2023-08-21T15:48:36;34.40;47.70
25438;DHT22;13364;49.084;9.978;2023-08-21T15:51:03;34.30;47.30
25438;DHT22;13364;49.084;9.978;2023-08-21T15:53:30;34.20;46.50
25438;DHT22;13364;49.084;9.978;2023-08-21T15:55:58;33.90;48.10
25438;DHT22;13364;49.084;9.978;2023-08-21T15:58:25;33.70;47.20
25438;DHT22;13364;49.084;9.978;2023-08-21T16:00:52;33.50;47.50